createdAt,value
2019-03-12T00:00:18.793Z,9.50
2019-03-12T00:02:47.331Z,9.40
2019-03-12T00:05:15.769Z,9.40
2019-03-12T00:07:44.290Z,9.30
2019-03-12T00:10:12.742Z,9.20
2019-03-12T00:12:41.206Z,9.20
2019-03-12T00:15:09.643Z,9.20
2019-03-12T00:17:38.209Z,9.20
2019-03-12T00:20:08.098Z,9.20
2019-03-12T00:22:36.639Z,9.30
2019-03-12T00:25:05.078Z,9.30
2019-03-12T00:27:33.516Z,9.40
2019-03-12T00:30:01.976Z,9.40
2019-03-12T00:32:30.424Z,9.50
2019-03-12T00:34:58.874Z,9.50
2019-03-12T00:37:27.318Z,9.50
2019-03-12T00:39:55.798Z,9.50
2019-03-12T00:42:24.230Z,9.50
2019-03-12T00:44:52.672Z,9.40
2019-03-12T00:47:21.123Z,9.40
2019-03-12T00:49:49.707Z,9.40
2019-03-12T00:52:18.153Z,9.40
2019-03-12T00:54:46.586Z,9.30
2019-03-12T00:57:15.065Z,9.30
2019-03-12T00:59:43.475Z,9.20
2019-03-12T01:02:11.927Z,9.20
2019-03-12T01:04:40.371Z,9.20
2019-03-12T01:07:08.824Z,9.10
2019-03-12T01:09:37.266Z,9.10
2019-03-12T01:12:05.722Z,9.10
2019-03-12T01:14:34.162Z,9.10
2019-03-12T01:17:02.611Z,9.10
2019-03-12T01:19:31.066Z,9.00
2019-03-12T01:21:59.508Z,9.00
2019-03-12T01:24:27.950Z,8.90
2019-03-12T01:26:56.444Z,8.80
2019-03-12T01:29:24.885Z,8.70
2019-03-12T01:31:53.337Z,8.70
2019-03-12T01:34:21.778Z,8.50
2019-03-12T01:36:50.213Z,8.20
2019-03-12T01:39:18.688Z,8.00
2019-03-12T01:41:47.125Z,7.80
2019-03-12T01:44:15.577Z,7.60
2019-03-12T01:46:44.034Z,7.50
2019-03-12T01:49:12.512Z,7.40
2019-03-12T01:51:40.941Z,7.30
2019-03-12T01:54:09.390Z,7.20
2019-03-12T01:56:37.924Z,7.20
2019-03-12T01:59:06.402Z,7.10
2019-03-12T02:01:34.826Z,7.10
2019-03-12T02:04:03.262Z,7.10
2019-03-12T02:06:31.711Z,7.20
2019-03-12T02:09:00.157Z,7.20
2019-03-12T02:11:28.889Z,7.20
2019-03-12T02:13:57.354Z,7.20
2019-03-12T02:16:25.851Z,7.20
2019-03-12T02:18:54.297Z,7.20
2019-03-12T02:21:22.743Z,7.20
2019-03-12T02:23:51.226Z,7.20
2019-03-12T02:26:19.676Z,7.10
2019-03-12T02:28:48.142Z,7.10
2019-03-12T02:31:16.565Z,7.00
2019-03-12T02:33:45.044Z,7.00
2019-03-12T02:36:13.493Z,6.90
2019-03-12T02:38:41.946Z,6.90
2019-03-12T02:41:10.432Z,6.90
2019-03-12T02:43:38.848Z,6.90
2019-03-12T02:46:07.307Z,6.90
2019-03-12T02:48:35.743Z,7.00
2019-03-12T02:51:04.243Z,6.90
2019-03-12T02:53:32.852Z,7.00
2019-03-12T02:56:01.991Z,7.00
2019-03-12T02:58:30.716Z,7.00
2019-03-12T03:00:59.138Z,6.90
2019-03-12T03:03:27.592Z,7.00
2019-03-12T03:06:00.515Z,7.00
2019-03-12T03:08:30.621Z,7.00
2019-03-12T03:10:59.098Z,6.90
2019-03-12T03:13:27.543Z,7.00
2019-03-12T03:15:56.060Z,7.00
2019-03-12T03:18:24.534Z,6.90
2019-03-12T03:20:53.138Z,6.90
2019-03-12T03:23:21.603Z,6.90
2019-03-12T03:25:50.032Z,6.80
2019-03-12T03:28:18.513Z,6.70
2019-03-12T03:30:46.946Z,6.60
2019-03-12T03:33:15.386Z,6.30
2019-03-12T03:35:43.843Z,6.20
2019-03-12T03:38:12.288Z,6.10
2019-03-12T03:40:40.753Z,6.00
2019-03-12T03:43:09.201Z,6.00
2019-03-12T03:45:37.653Z,6.10
2019-03-12T03:48:06.101Z,6.10
2019-03-12T03:50:34.588Z,6.10
2019-03-12T03:53:03.036Z,6.00
2019-03-12T03:55:31.476Z,6.00
2019-03-12T03:57:59.932Z,6.00
2019-03-12T04:00:28.399Z,6.00
2019-03-12T04:02:56.864Z,6.10
2019-03-12T04:05:25.302Z,6.20
2019-03-12T04:07:53.868Z,6.30
2019-03-12T04:10:22.314Z,6.40
2019-03-12T04:12:50.759Z,6.40
2019-03-12T04:15:19.531Z,6.40
2019-03-12T04:17:48.025Z,6.20
2019-03-12T04:20:17.317Z,6.20
2019-03-12T04:22:45.759Z,6.10
2019-03-12T04:25:14.195Z,6.10
2019-03-12T04:27:42.634Z,6.10
2019-03-12T04:30:13.970Z,6.20
2019-03-12T04:32:42.422Z,6.20
2019-03-12T04:35:19.710Z,6.10
2019-03-12T04:37:48.157Z,6.10
2019-03-12T04:40:16.664Z,6.00
2019-03-12T04:42:45.155Z,6.00
2019-03-12T04:45:15.636Z,5.90
2019-03-12T04:47:44.099Z,5.80
2019-03-12T04:50:12.524Z,5.80
2019-03-12T04:52:40.988Z,5.60
2019-03-12T04:55:11.860Z,5.40
2019-03-12T04:57:40.343Z,5.40
2019-03-12T05:00:22.269Z,5.30
2019-03-12T05:02:50.738Z,5.20
2019-03-12T05:05:19.152Z,5.20
2019-03-12T05:07:47.614Z,5.10
2019-03-12T05:10:16.535Z,5.00
2019-03-12T05:12:44.938Z,5.00
2019-03-12T05:15:16.093Z,4.80
2019-03-12T05:17:45.273Z,4.80
2019-03-12T05:20:14.683Z,4.90
2019-03-12T05:22:43.121Z,4.90
2019-03-12T05:25:13.236Z,5.00
2019-03-12T05:27:41.689Z,5.00
2019-03-12T05:30:16.292Z,5.00
2019-03-12T05:32:44.739Z,5.10
2019-03-12T05:35:13.266Z,5.10
2019-03-12T05:37:41.712Z,5.10
2019-03-12T05:40:14.348Z,5.20
2019-03-12T05:42:42.772Z,5.20
2019-03-12T05:45:13.426Z,5.30
2019-03-12T05:47:41.940Z,5.40
2019-03-12T05:50:12.312Z,5.50
2019-03-12T05:52:40.799Z,5.60
2019-03-12T05:55:10.590Z,5.60
2019-03-12T05:57:39.050Z,5.70
2019-03-12T06:00:15.685Z,5.80
2019-03-12T06:02:44.127Z,5.90
2019-03-12T06:05:12.585Z,6.00
2019-03-12T06:07:41.030Z,5.80
2019-03-12T06:10:12.738Z,5.60
2019-03-12T06:12:41.188Z,5.60
2019-03-12T06:15:14.872Z,5.60
2019-03-12T06:17:43.311Z,5.60
2019-03-12T06:20:13.015Z,5.70
2019-03-12T06:22:41.460Z,5.80
2019-03-12T06:25:09.938Z,5.80
2019-03-12T06:27:38.359Z,6.00
2019-03-12T06:30:14.828Z,6.20
2019-03-12T06:32:53.632Z,6.20
2019-03-12T06:35:41.695Z,6.40
2019-03-12T06:38:17.463Z,6.50
2019-03-12T06:40:50.334Z,6.70
2019-03-12T06:43:20.539Z,6.90
2019-03-12T06:45:59.361Z,7.00
2019-03-12T06:48:29.485Z,7.10
2019-03-12T06:50:59.618Z,7.30
2019-03-12T06:53:38.440Z,7.50
2019-03-12T06:56:24.643Z,7.60
2019-03-12T06:59:03.415Z,7.80
2019-03-12T07:01:49.522Z,8.00
2019-03-12T07:04:19.611Z,8.10
2019-03-12T07:06:52.509Z,8.30
2019-03-12T07:09:25.531Z,8.50
2019-03-12T07:11:55.621Z,8.60
2019-03-12T07:14:43.656Z,8.80
2019-03-12T07:17:19.466Z,9.00
2019-03-12T07:19:58.330Z,9.20
2019-03-12T07:22:28.430Z,9.30
2019-03-12T07:25:04.608Z,9.70
2019-03-12T07:27:43.472Z,9.90
2019-03-12T07:30:16.383Z,10.10
2019-03-12T07:32:46.484Z,10.30
2019-03-12T07:35:31.435Z,10.40
2019-03-12T07:38:07.375Z,10.60
2019-03-12T07:40:43.246Z,10.60
2019-03-12T07:43:13.356Z,10.80
2019-03-12T07:45:52.258Z,10.90
2019-03-12T07:48:34.295Z,11.00
2019-03-12T07:51:10.296Z,11.30
2019-03-12T07:53:59.670Z,11.40
2019-03-12T07:56:29.406Z,11.50
2019-03-12T07:58:59.543Z,11.60
2019-03-12T08:01:41.356Z,11.70
2019-03-12T08:04:22.898Z,11.80
2019-03-12T08:06:53.002Z,12.00
2019-03-12T08:09:25.908Z,12.10
2019-03-12T08:12:01.915Z,12.20
2019-03-12T08:14:49.925Z,12.30
2019-03-12T08:17:22.786Z,12.50
2019-03-12T08:20:01.718Z,12.60
2019-03-12T08:22:37.405Z,12.70
2019-03-12T08:25:14.835Z,12.80
2019-03-12T08:27:44.948Z,12.80
2019-03-12T08:30:15.059Z,12.90
2019-03-12T08:32:57.019Z,13.00
2019-03-12T08:35:27.178Z,13.10
2019-03-12T08:38:15.187Z,13.10
2019-03-12T08:40:52.482Z,13.10
2019-03-12T08:43:25.947Z,13.20
2019-03-12T08:46:01.981Z,13.40
2019-03-12T08:48:32.082Z,13.50
2019-03-12T08:51:16.985Z,13.50
2019-03-12T08:53:52.974Z,13.60
2019-03-12T08:56:23.043Z,13.70
2019-03-12T08:59:08.089Z,13.90
2019-03-12T09:01:47.305Z,14.00
2019-03-12T09:04:18.604Z,14.20
2019-03-12T09:06:48.659Z,14.20
2019-03-12T09:09:34.775Z,14.30
2019-03-12T09:12:04.864Z,14.50
2019-03-12T09:14:49.847Z,14.80
2019-03-12T09:17:22.661Z,15.30
2019-03-12T09:19:55.451Z,15.90
2019-03-12T09:22:40.478Z,16.20
2019-03-12T09:25:27.050Z,16.60
2019-03-12T09:28:10.531Z,17.30
2019-03-12T09:30:46.420Z,18.00
2019-03-12T09:33:19.407Z,18.10
2019-03-12T09:36:04.330Z,18.30
2019-03-12T09:38:34.433Z,18.20
2019-03-12T09:41:20.648Z,18.70
2019-03-12T09:43:56.447Z,19.20
2019-03-12T09:46:44.333Z,19.30
2019-03-12T09:49:14.410Z,19.70
2019-03-12T09:51:44.580Z,19.70
2019-03-12T09:54:20.463Z,19.90
2019-03-12T09:56:50.572Z,20.10
2019-03-12T09:59:20.644Z,20.50
2019-03-12T10:02:05.575Z,21.00
2019-03-12T10:04:38.425Z,21.30
2019-03-12T10:07:24.573Z,21.50
2019-03-12T10:09:57.337Z,21.80
2019-03-12T10:12:27.429Z,22.00
2019-03-12T10:15:00.320Z,21.80
2019-03-12T10:17:30.426Z,21.80
2019-03-12T10:20:15.257Z,21.80
2019-03-12T10:22:50.984Z,22.10
2019-03-12T10:25:37.042Z,22.40
2019-03-12T10:28:09.828Z,22.50
2019-03-12T10:30:39.911Z,22.40
2019-03-12T10:33:12.409Z,22.50
2019-03-12T10:35:57.371Z,23.20
2019-03-12T10:39:20.113Z,22.80
2019-03-12T10:41:50.182Z,22.60
2019-03-12T10:44:26.003Z,23.00
2019-03-12T10:47:01.705Z,23.40
2019-03-12T10:49:37.549Z,23.70
2019-03-12T10:52:00.267Z,23.60
2019-03-12T10:54:28.759Z,23.70
2019-03-12T10:56:57.204Z,22.50
2019-03-12T10:59:25.751Z,21.50
2019-03-12T11:01:54.197Z,22.10
2019-03-12T11:04:22.808Z,23.30
2019-03-12T11:06:51.443Z,23.30
2019-03-12T11:09:19.954Z,22.10
2019-03-12T11:11:48.426Z,22.00
2019-03-12T11:14:16.876Z,22.70
2019-03-12T11:16:45.450Z,23.90
2019-03-12T11:19:13.978Z,24.80
2019-03-12T11:21:42.486Z,25.00
2019-03-12T11:24:12.597Z,25.10
2019-03-12T11:26:41.161Z,25.30
2019-03-12T11:29:09.604Z,25.20
2019-03-12T11:31:38.052Z,25.70
2019-03-12T11:34:06.821Z,25.10
2019-03-12T11:36:35.404Z,24.90
2019-03-12T11:39:05.243Z,24.20
2019-03-12T11:41:33.733Z,23.50
2019-03-12T11:44:02.249Z,23.40
2019-03-12T11:46:41.797Z,22.80
2019-03-12T11:49:01.082Z,22.70
2019-03-12T11:51:29.569Z,22.60
2019-03-12T11:53:58.149Z,23.00
2019-03-12T11:56:26.663Z,23.60
2019-03-12T11:58:55.316Z,23.80
2019-03-12T12:01:23.859Z,23.40
2019-03-12T12:03:52.379Z,23.50
2019-03-12T12:06:20.870Z,23.00
2019-03-12T12:08:49.307Z,22.00
2019-03-12T12:11:17.810Z,21.70
2019-03-12T12:13:46.333Z,21.00
2019-03-12T12:16:14.801Z,20.40
2019-03-12T12:18:43.361Z,20.50
2019-03-12T12:21:11.797Z,20.50
2019-03-12T12:23:40.277Z,20.80
2019-03-12T12:26:08.739Z,20.80
2019-03-12T12:28:37.185Z,21.30
2019-03-12T12:31:05.633Z,21.80
2019-03-12T12:33:34.083Z,21.70
2019-03-12T12:36:04.202Z,20.60
2019-03-12T12:38:33.024Z,20.00
2019-03-12T12:41:01.475Z,20.10
2019-03-12T12:43:30.088Z,19.90
2019-03-12T12:45:58.641Z,19.90
2019-03-12T12:48:27.255Z,20.00
2019-03-12T12:51:02.991Z,20.50
2019-03-12T12:53:25.985Z,21.30
2019-03-12T12:55:54.466Z,22.30
2019-03-12T12:58:22.944Z,22.30
2019-03-12T13:00:51.493Z,22.20
2019-03-12T13:03:20.037Z,21.20
2019-03-12T13:05:50.169Z,20.80
2019-03-12T13:08:18.661Z,20.80
2019-03-12T13:10:47.376Z,20.80
2019-03-12T13:13:15.964Z,21.20
2019-03-12T13:15:44.419Z,20.90
2019-03-12T13:18:12.885Z,21.30
2019-03-12T13:20:41.333Z,21.70
2019-03-12T13:23:09.861Z,22.40
2019-03-12T13:25:38.479Z,22.70
2019-03-12T13:28:06.978Z,22.00
2019-03-12T13:30:35.560Z,23.00
2019-03-12T13:33:04.182Z,24.10
2019-03-12T13:35:34.228Z,25.00
2019-03-12T13:38:02.736Z,25.40
2019-03-12T13:40:31.409Z,25.40
2019-03-12T13:42:59.907Z,23.60
2019-03-12T13:45:30.926Z,22.90
2019-03-12T13:47:59.637Z,22.50
2019-03-12T13:50:28.122Z,21.80
2019-03-12T13:52:56.577Z,21.90
2019-03-12T13:55:25.074Z,21.90
2019-03-12T13:57:53.574Z,21.70
2019-03-12T14:00:25.970Z,22.00
2019-03-12T14:02:54.450Z,23.00
2019-03-12T14:05:23.002Z,22.60
2019-03-12T14:07:51.460Z,22.00
2019-03-12T14:10:21.802Z,22.20
2019-03-12T14:12:50.742Z,22.70
2019-03-12T14:15:24.458Z,22.80
2019-03-12T14:17:52.954Z,23.30
2019-03-12T14:20:40.381Z,23.20
2019-03-12T14:23:10.396Z,23.00
2019-03-12T14:25:38.867Z,22.60
2019-03-12T14:28:07.658Z,22.70
2019-03-12T14:30:36.146Z,23.10
2019-03-12T14:33:08.833Z,22.90
2019-03-12T14:35:37.286Z,22.20
2019-03-12T14:38:05.851Z,22.50
2019-03-12T14:40:34.504Z,22.60
2019-03-12T14:43:03.003Z,22.60
2019-03-12T14:45:31.586Z,23.30
2019-03-12T14:48:00.647Z,23.10
2019-03-12T14:50:30.790Z,22.90
2019-03-12T14:53:21.446Z,23.30
2019-03-12T14:55:41.658Z,23.60
2019-03-12T14:58:10.125Z,24.00
2019-03-12T15:00:38.571Z,23.90
2019-03-12T15:03:07.312Z,23.80
2019-03-12T15:05:35.752Z,23.60
2019-03-12T15:08:04.196Z,24.10
2019-03-12T15:10:32.647Z,24.60
2019-03-12T15:13:01.214Z,25.00
2019-03-12T15:15:29.660Z,24.70
2019-03-12T15:18:01.771Z,24.40
2019-03-12T15:20:30.185Z,24.60
2019-03-12T15:23:06.267Z,24.80
2019-03-12T15:25:35.854Z,25.40
2019-03-12T15:28:04.437Z,25.20
2019-03-12T15:30:32.840Z,25.10
2019-03-12T15:33:01.370Z,24.60
2019-03-12T15:35:29.854Z,25.10
2019-03-12T15:37:58.292Z,25.10
2019-03-12T15:40:26.935Z,25.00
2019-03-12T15:42:55.802Z,24.70
2019-03-12T15:45:24.303Z,23.80
2019-03-12T15:47:52.851Z,24.80
2019-03-12T15:50:21.307Z,25.20
2019-03-12T15:52:49.745Z,25.10
2019-03-12T15:55:18.177Z,25.00
2019-03-12T15:57:46.706Z,23.80
2019-03-12T16:00:16.208Z,22.50
2019-03-12T16:02:44.677Z,21.40
2019-03-12T16:05:13.207Z,20.50
2019-03-12T16:07:41.855Z,19.20
2019-03-12T16:10:12.794Z,18.70
2019-03-12T16:12:41.282Z,18.30
2019-03-12T16:15:10.939Z,18.00
2019-03-12T16:17:39.376Z,17.80
2019-03-12T16:20:12.955Z,17.60
2019-03-12T16:22:41.385Z,17.30
2019-03-12T16:25:10.118Z,17.00
2019-03-12T16:27:38.557Z,16.80
2019-03-12T16:30:12.429Z,16.70
2019-03-12T16:32:40.848Z,16.70
2019-03-12T16:35:09.601Z,16.60
2019-03-12T16:37:38.063Z,16.50
2019-03-12T16:40:09.708Z,16.40
2019-03-12T16:42:38.172Z,16.30
2019-03-12T16:45:09.896Z,16.10
2019-03-12T16:47:38.357Z,16.00
2019-03-12T16:50:14.777Z,15.90
2019-03-12T16:52:43.246Z,15.80
2019-03-12T16:55:17.998Z,15.80
2019-03-12T16:57:46.518Z,15.60
2019-03-12T17:00:17.771Z,15.60
2019-03-12T17:02:46.206Z,15.60
2019-03-12T17:05:14.738Z,15.50
2019-03-12T17:07:43.222Z,15.40
2019-03-12T17:10:13.920Z,15.30
2019-03-12T17:12:42.428Z,15.20
2019-03-12T17:15:28.610Z,15.20
2019-03-12T17:17:57.092Z,15.20
2019-03-12T17:20:25.585Z,15.10
2019-03-12T17:22:54.072Z,15.00
2019-03-12T17:25:22.767Z,14.90
2019-03-12T17:27:52.075Z,14.80
2019-03-12T17:30:24.534Z,14.70
2019-03-12T17:32:53.035Z,14.70
2019-03-12T17:35:30.241Z,14.60
2019-03-12T17:37:58.767Z,14.50
2019-03-12T17:40:27.276Z,14.50
2019-03-12T17:42:55.819Z,14.40
2019-03-12T17:45:24.265Z,14.40
2019-03-12T17:47:52.735Z,14.30
2019-03-12T17:50:21.215Z,14.20
2019-03-12T17:52:50.830Z,14.20
2019-03-12T17:55:19.478Z,14.10
2019-03-12T17:57:50.776Z,14.00
2019-03-12T18:00:21.805Z,13.90
2019-03-12T18:02:50.367Z,13.80
2019-03-12T18:05:20.672Z,13.80
2019-03-12T18:07:58.512Z,13.80
2019-03-12T18:10:29.860Z,13.70
2019-03-12T18:12:58.313Z,13.60
2019-03-12T18:15:26.771Z,13.60
2019-03-12T18:17:55.287Z,13.50
2019-03-12T18:20:24.251Z,13.50
2019-03-12T18:22:52.797Z,13.50
2019-03-12T18:25:43.425Z,13.50
2019-03-12T18:28:11.961Z,13.40
2019-03-12T18:30:45.251Z,13.30
2019-03-12T18:33:13.839Z,13.20
2019-03-12T18:35:42.397Z,13.20
2019-03-12T18:38:11.062Z,13.30
2019-03-12T18:40:42.664Z,13.30
2019-03-12T18:43:14.828Z,13.20
2019-03-12T18:45:43.417Z,13.20
2019-03-12T18:48:12.019Z,13.20
2019-03-12T18:50:40.501Z,13.20
2019-03-12T18:53:08.995Z,13.10
2019-03-12T18:55:48.958Z,12.90
2019-03-12T18:58:17.523Z,12.70
2019-03-12T19:00:48.956Z,12.70
2019-03-12T19:03:17.778Z,12.70
2019-03-12T19:05:46.257Z,12.70
2019-03-12T19:08:14.766Z,12.70
2019-03-12T19:10:43.578Z,12.80
2019-03-12T19:13:12.008Z,12.80
2019-03-12T19:15:42.809Z,12.60
2019-03-12T19:18:11.498Z,12.50
2019-03-12T19:20:39.997Z,12.50
2019-03-12T19:23:08.480Z,12.50
2019-03-12T19:25:39.298Z,12.40
2019-03-12T19:28:07.778Z,12.50
2019-03-12T19:30:36.234Z,12.50
2019-03-12T19:33:15.559Z,12.60
2019-03-12T19:35:44.015Z,12.40
2019-03-12T19:38:12.459Z,12.30
2019-03-12T19:40:45.315Z,12.20
2019-03-12T19:43:13.778Z,12.20
2019-03-12T19:45:42.346Z,12.20
2019-03-12T19:48:12.477Z,12.00
2019-03-12T19:50:40.970Z,12.00
2019-03-12T19:53:11.075Z,12.00
2019-03-12T19:55:42.714Z,12.00
2019-03-12T19:58:12.821Z,12.00
2019-03-12T20:00:44.464Z,11.90
2019-03-12T20:03:15.281Z,11.80
2019-03-12T20:05:43.314Z,11.70
2019-03-12T20:08:12.012Z,11.70
2019-03-12T20:11:06.574Z,11.70
2019-03-12T20:13:38.957Z,11.70
2019-03-12T20:16:39.371Z,11.70
2019-03-12T20:19:29.211Z,11.60
2019-03-12T20:22:23.433Z,11.50
2019-03-12T20:25:20.507Z,11.40
2019-03-12T20:28:01.055Z,11.40
2019-03-12T20:30:52.359Z,11.40
2019-03-12T20:33:27.255Z,11.40
2019-03-12T20:36:15.806Z,11.30
2019-03-12T20:39:07.099Z,11.30
2019-03-12T20:42:12.168Z,11.30
2019-03-12T20:44:59.310Z,11.40
2019-03-12T20:47:46.172Z,11.40
2019-03-12T20:50:49.075Z,11.20
2019-03-12T20:53:46.342Z,11.20
2019-03-12T20:56:30.064Z,11.30
2019-03-12T20:59:34.774Z,11.20
2019-03-12T21:02:39.597Z,11.00
2019-03-12T21:05:29.513Z,11.10
2019-03-12T21:08:15.838Z,11.20
2019-03-12T21:11:20.203Z,11.10
2019-03-12T21:14:20.499Z,10.90
2019-03-12T21:17:01.449Z,10.90
2019-03-12T21:20:08.563Z,10.90
2019-03-12T21:22:54.759Z,11.00
2019-03-12T21:25:40.918Z,11.00
2019-03-12T21:28:24.283Z,10.80
2019-03-12T21:30:52.773Z,10.90
2019-03-12T21:33:21.532Z,11.00
2019-03-12T21:35:50.337Z,11.10
2019-03-12T21:38:20.861Z,11.00
2019-03-12T21:40:49.479Z,11.00
2019-03-12T21:43:18.136Z,11.10
2019-03-12T21:45:49.340Z,11.00
2019-03-12T21:48:17.803Z,11.00
2019-03-12T21:50:46.224Z,11.00
2019-03-12T21:53:15.183Z,10.90
2019-03-12T21:55:43.760Z,11.00
2019-03-12T21:58:12.333Z,10.90
2019-03-12T22:00:40.870Z,10.90
2019-03-12T22:03:09.337Z,10.90
2019-03-12T22:05:37.900Z,10.80
2019-03-12T22:08:06.357Z,10.60
2019-03-12T22:10:34.825Z,10.40
2019-03-12T22:13:03.275Z,10.30
2019-03-12T22:15:31.743Z,10.40
2019-03-12T22:18:00.215Z,10.30
2019-03-12T22:20:28.683Z,10.40
2019-03-12T22:22:58.790Z,10.20
2019-03-12T22:25:27.319Z,10.20
2019-03-12T22:27:55.810Z,10.20
2019-03-12T22:30:25.875Z,10.30
2019-03-12T22:32:54.403Z,10.20
2019-03-12T22:35:22.854Z,10.40
2019-03-12T22:37:51.321Z,10.50
2019-03-12T22:40:19.749Z,10.30
2019-03-12T22:42:48.208Z,10.20
2019-03-12T22:45:16.730Z,10.20
2019-03-12T22:47:45.249Z,10.20
2019-03-12T22:50:15.082Z,10.00
2019-03-12T22:52:43.663Z,10.10
2019-03-12T22:55:12.972Z,10.10
2019-03-12T22:57:41.475Z,10.20
2019-03-12T23:00:17.530Z,10.30
2019-03-12T23:02:46.114Z,10.30
2019-03-12T23:05:14.701Z,10.30
2019-03-12T23:07:43.156Z,10.40
2019-03-12T23:10:13.005Z,10.40
2019-03-12T23:12:41.507Z,10.20
2019-03-12T23:15:14.931Z,10.10
2019-03-12T23:17:43.367Z,10.10
2019-03-12T23:20:13.970Z,10.00
2019-03-12T23:22:42.471Z,9.80
2019-03-12T23:25:10.998Z,9.90
2019-03-12T23:27:39.444Z,10.00
2019-03-12T23:30:16.228Z,10.20
2019-03-12T23:32:44.685Z,10.20
2019-03-12T23:35:13.463Z,10.20
2019-03-12T23:37:41.970Z,10.20
2019-03-12T23:40:12.825Z,10.20
2019-03-12T23:42:41.347Z,10.00
2019-03-12T23:45:10.842Z,10.10
2019-03-12T23:47:39.297Z,10.10
2019-03-12T23:50:09.767Z,10.10
2019-03-12T23:52:38.245Z,10.20
2019-03-12T23:55:08.507Z,10.00
2019-03-12T23:57:36.966Z,9.80
